createdAt,value
2022-10-20T00:01:40.562Z,1.00
2022-10-20T00:04:07.142Z,1.00
2022-10-20T00:06:33.757Z,1.00
2022-10-20T00:09:01.017Z,1.00
2022-10-20T00:11:27.600Z,1.00
2022-10-20T00:13:54.408Z,1.00
2022-10-20T00:16:21.163Z,1.00
2022-10-20T00:18:47.758Z,1.00
2022-10-20T00:21:15.303Z,9.30
2022-10-20T00:23:41.872Z,57.30
2022-10-20T00:26:12.163Z,99.90
2022-10-20T00:28:38.806Z,99.90
2022-10-20T00:31:05.567Z,99.90
2022-10-20T00:33:32.176Z,99.90
2022-10-20T00:36:01.997Z,1.00
2022-10-20T00:38:28.578Z,1.00
2022-10-20T00:40:55.144Z,1.00
2022-10-20T00:43:21.693Z,1.00
2022-10-20T00:45:52.541Z,1.00
2022-10-20T00:48:19.693Z,1.00
2022-10-20T00:50:50.545Z,1.00
2022-10-20T00:53:17.297Z,1.00
2022-10-20T00:55:45.755Z,99.90
2022-10-20T00:58:12.293Z,99.90
2022-10-20T01:00:39.337Z,99.90
2022-10-20T01:03:05.872Z,1.00
2022-10-20T01:05:32.424Z,99.90
2022-10-20T01:07:58.954Z,99.90
2022-10-20T01:10:25.495Z,99.90
2022-10-20T01:12:58.012Z,99.90
2022-10-20T01:15:30.609Z,99.90
2022-10-20T01:18:15.883Z,1.00
2022-10-20T01:20:42.395Z,1.00
2022-10-20T01:23:21.181Z,1.00
2022-10-20T01:25:55.104Z,1.00
2022-10-20T01:28:36.855Z,1.00
2022-10-20T01:31:03.879Z,99.90
2022-10-20T01:33:37.210Z,99.90
2022-10-20T01:36:06.717Z,99.90
2022-10-20T01:38:36.648Z,99.90
2022-10-20T01:41:07.706Z,99.90
2022-10-20T01:43:35.439Z,99.90
2022-10-20T01:46:02.315Z,99.90
2022-10-20T01:48:29.452Z,99.90
2022-10-20T01:50:56.001Z,99.90
2022-10-20T01:53:22.533Z,1.00
2022-10-20T01:55:52.777Z,1.00
2022-10-20T01:58:22.140Z,1.00
2022-10-20T02:00:48.913Z,99.90
2022-10-20T02:03:24.612Z,99.90
2022-10-20T02:05:57.354Z,99.90
2022-10-20T02:08:42.567Z,1.00
2022-10-20T02:11:10.019Z,1.00
2022-10-20T02:13:37.119Z,1.40
2022-10-20T02:16:04.800Z,99.90
2022-10-20T02:18:31.961Z,99.90
2022-10-20T02:20:58.600Z,99.90
2022-10-20T02:23:25.141Z,99.90
2022-10-20T02:25:52.050Z,99.90
2022-10-20T02:28:18.615Z,99.90
2022-10-20T02:30:45.176Z,99.90
2022-10-20T02:33:11.710Z,99.90
2022-10-20T02:35:38.312Z,84.70
2022-10-20T02:38:04.917Z,1.00
2022-10-20T02:40:31.633Z,1.00
2022-10-20T02:42:58.165Z,1.00
2022-10-20T02:45:24.716Z,1.00
2022-10-20T02:47:51.249Z,27.10
2022-10-20T02:50:17.820Z,99.90
2022-10-20T02:52:44.354Z,99.90
2022-10-20T02:55:11.007Z,99.90
2022-10-20T02:57:38.114Z,99.90
2022-10-20T03:00:05.708Z,99.90
2022-10-20T03:02:32.238Z,1.00
2022-10-20T03:04:58.779Z,1.00
2022-10-20T03:07:25.320Z,1.00
2022-10-20T03:09:51.859Z,1.00
2022-10-20T03:12:18.449Z,1.00
2022-10-20T03:14:45.424Z,1.00
2022-10-20T03:17:11.960Z,1.00
2022-10-20T03:19:39.375Z,1.00
2022-10-20T03:22:06.194Z,1.00
2022-10-20T03:24:32.790Z,1.00
2022-10-20T03:26:59.316Z,1.00
2022-10-20T03:29:25.865Z,1.00
2022-10-20T03:31:52.440Z,1.00
2022-10-20T03:34:19.000Z,1.00
2022-10-20T03:36:45.564Z,1.00
2022-10-20T03:39:12.113Z,1.00
2022-10-20T03:41:38.648Z,1.00
2022-10-20T03:44:05.198Z,1.00
2022-10-20T03:46:31.754Z,1.00
2022-10-20T03:48:58.365Z,1.00
2022-10-20T03:51:24.888Z,1.00
2022-10-20T03:53:51.427Z,25.90
2022-10-20T03:56:18.520Z,23.40
2022-10-20T03:58:45.117Z,14.20
2022-10-20T04:01:18.839Z,27.20
2022-10-20T04:03:45.508Z,65.40
2022-10-20T04:06:12.551Z,74.40
2022-10-20T04:08:39.157Z,99.90
2022-10-20T04:11:05.764Z,99.90
2022-10-20T04:13:32.322Z,99.90
2022-10-20T04:15:59.859Z,99.90
2022-10-20T04:18:27.228Z,99.90
2022-10-20T04:20:53.822Z,99.90
2022-10-20T04:23:20.368Z,99.90
2022-10-20T04:25:48.431Z,99.90
2022-10-20T04:28:15.422Z,1.00
2022-10-20T04:30:42.241Z,1.00
2022-10-20T04:33:08.764Z,1.00
2022-10-20T04:35:35.383Z,1.00
2022-10-20T04:38:02.018Z,1.00
2022-10-20T04:40:28.573Z,1.00
2022-10-20T04:42:55.127Z,1.00
2022-10-20T04:45:21.678Z,1.00
2022-10-20T04:47:48.213Z,1.00
2022-10-20T04:50:14.761Z,1.00
2022-10-20T04:52:41.291Z,99.90
2022-10-20T04:55:08.065Z,1.00
2022-10-20T04:57:35.014Z,1.00
2022-10-20T05:00:01.879Z,1.00
2022-10-20T05:02:28.422Z,99.90
2022-10-20T05:04:54.977Z,99.90
2022-10-20T05:07:21.508Z,99.90
2022-10-20T05:09:48.069Z,99.90
2022-10-20T05:14:46.057Z,99.90
2022-10-20T05:17:12.612Z,99.90
2022-10-20T05:19:39.156Z,99.90
2022-10-20T05:22:05.686Z,99.90
2022-10-20T05:24:32.238Z,99.90
2022-10-20T05:26:58.771Z,99.90
2022-10-20T05:29:25.319Z,99.90
2022-10-20T05:31:51.926Z,1.00
2022-10-20T05:34:18.477Z,1.00
2022-10-20T05:36:45.052Z,1.00
2022-10-20T05:39:11.605Z,1.00
2022-10-20T05:41:39.180Z,1.00
2022-10-20T05:44:06.279Z,99.90
2022-10-20T05:46:33.973Z,99.90
2022-10-20T05:49:01.498Z,99.90
2022-10-20T05:51:28.979Z,99.90
2022-10-20T05:53:55.754Z,99.90
2022-10-20T05:56:22.385Z,1.00
2022-10-20T05:58:49.001Z,1.00
2022-10-20T06:01:18.107Z,1.00
2022-10-20T06:03:48.208Z,1.00
2022-10-20T06:06:14.770Z,1.00
2022-10-20T06:08:41.355Z,1.00
2022-10-20T06:11:08.491Z,1.00
2022-10-20T06:13:35.044Z,1.00
2022-10-20T06:16:02.710Z,1.00
2022-10-20T06:18:29.252Z,1.00
2022-10-20T06:20:59.800Z,1.00
2022-10-20T06:23:26.334Z,1.00
2022-10-20T06:25:52.875Z,1.00
2022-10-20T06:28:19.404Z,1.00
2022-10-20T06:30:45.953Z,1.00
2022-10-20T06:33:14.851Z,1.00
2022-10-20T06:35:41.392Z,1.00
2022-10-20T06:38:07.915Z,1.00
2022-10-20T06:40:34.535Z,1.00
2022-10-20T06:43:01.075Z,99.90
2022-10-20T06:45:27.837Z,1.00
2022-10-20T06:47:54.511Z,1.00
2022-10-20T06:50:21.065Z,99.90
2022-10-20T06:52:47.605Z,1.00
2022-10-20T06:55:14.172Z,1.00
2022-10-20T06:57:40.703Z,99.90
2022-10-20T07:00:07.509Z,75.70
2022-10-20T07:02:34.174Z,1.00
2022-10-20T07:05:00.904Z,1.00
2022-10-20T07:07:27.505Z,1.00
2022-10-20T07:09:54.088Z,1.00
2022-10-20T07:12:20.659Z,1.00
2022-10-20T07:14:47.831Z,1.00
2022-10-20T07:17:14.362Z,1.00
2022-10-20T07:19:40.910Z,1.00
2022-10-20T07:22:07.442Z,1.00
2022-10-20T07:24:33.975Z,1.00
2022-10-20T07:27:00.515Z,1.00
2022-10-20T07:29:27.121Z,1.00
2022-10-20T07:31:53.667Z,1.00
2022-10-20T07:34:26.275Z,1.00
2022-10-20T07:36:53.349Z,1.00
2022-10-20T07:39:19.917Z,99.90
2022-10-20T07:41:47.913Z,99.90
2022-10-20T07:44:14.620Z,99.90
2022-10-20T07:46:41.172Z,99.90
2022-10-20T07:51:54.276Z,99.90
2022-10-20T07:54:20.904Z,99.90
2022-10-20T07:56:47.448Z,99.90
2022-10-20T07:59:14.223Z,99.90
2022-10-20T08:01:40.860Z,99.90
2022-10-20T08:04:07.507Z,99.90
2022-10-20T08:06:34.087Z,99.90
2022-10-20T08:09:00.696Z,99.90
2022-10-20T08:11:27.268Z,99.90
2022-10-20T08:13:53.809Z,99.90
2022-10-20T08:16:36.520Z,99.90
2022-10-20T08:19:06.798Z,99.90
2022-10-20T08:21:33.394Z,99.90
2022-10-20T08:24:01.569Z,99.90
2022-10-20T08:26:28.234Z,99.90
2022-10-20T08:28:54.887Z,99.90
2022-10-20T08:31:21.619Z,53.60
2022-10-20T08:33:52.284Z,8.40
2022-10-20T08:36:19.702Z,1.00
2022-10-20T08:38:46.235Z,1.00
2022-10-20T08:41:14.738Z,1.00
2022-10-20T08:43:41.321Z,1.00
2022-10-20T08:46:12.262Z,1.00
2022-10-20T08:48:38.849Z,1.00
2022-10-20T08:51:05.462Z,1.00
2022-10-20T08:53:33.329Z,1.00
2022-10-20T08:55:59.891Z,1.00
2022-10-20T08:58:26.433Z,1.00
2022-10-20T09:00:56.836Z,1.00
2022-10-20T09:03:24.451Z,1.00
2022-10-20T09:05:51.899Z,1.00
2022-10-20T09:08:18.829Z,1.00
2022-10-20T09:10:48.838Z,1.00
2022-10-20T09:13:18.064Z,1.00
2022-10-20T09:15:44.613Z,1.00
2022-10-20T09:18:11.896Z,1.00
2022-10-20T09:20:39.739Z,1.00
2022-10-20T09:23:28.214Z,1.00
2022-10-20T09:25:54.931Z,1.00
2022-10-20T09:28:22.696Z,1.00
2022-10-20T09:30:49.509Z,1.00
2022-10-20T09:33:27.611Z,1.00
2022-10-20T09:35:54.424Z,1.00
2022-10-20T09:38:26.525Z,1.00
2022-10-20T09:40:59.207Z,1.00
2022-10-20T09:43:25.741Z,1.00
2022-10-20T09:45:53.280Z,1.00
2022-10-20T09:48:19.794Z,1.00
2022-10-20T09:50:46.866Z,99.90
2022-10-20T09:53:16.732Z,99.90
2022-10-20T09:55:45.609Z,99.90
2022-10-20T09:58:17.263Z,99.90
2022-10-20T10:00:47.651Z,99.90
2022-10-20T10:03:21.449Z,99.90
2022-10-20T10:05:52.133Z,99.90
2022-10-20T10:08:18.919Z,99.90
2022-10-20T10:10:45.945Z,99.90
2022-10-20T10:13:24.809Z,99.90
2022-10-20T10:16:01.709Z,99.90
2022-10-20T10:18:28.467Z,99.90
2022-10-20T10:20:59.056Z,99.90
2022-10-20T10:23:26.121Z,99.90
2022-10-20T10:25:52.856Z,99.90
2022-10-20T10:28:24.258Z,99.90
2022-10-20T10:30:51.081Z,99.90
2022-10-20T10:33:27.715Z,99.90
2022-10-20T10:35:54.323Z,99.90
2022-10-20T10:38:20.857Z,99.90
2022-10-20T10:40:50.462Z,99.90
2022-10-20T10:43:35.820Z,99.90
2022-10-20T10:46:10.151Z,99.90
2022-10-20T10:48:55.013Z,99.90
2022-10-20T10:51:27.860Z,99.90
2022-10-20T10:54:12.738Z,99.90
2022-10-20T10:56:46.515Z,99.90
2022-10-20T10:59:23.401Z,99.90
2022-10-20T11:02:08.670Z,99.90
2022-10-20T11:04:39.833Z,99.90
2022-10-20T11:07:09.052Z,99.90
2022-10-20T11:09:41.739Z,99.90
2022-10-20T11:12:27.165Z,99.90
2022-10-20T11:14:53.689Z,99.90
2022-10-20T11:17:24.424Z,99.90
2022-10-20T11:20:00.445Z,99.90
2022-10-20T11:22:32.776Z,99.90
2022-10-20T11:25:02.447Z,99.90
2022-10-20T11:27:34.152Z,99.90
2022-10-20T11:30:05.353Z,99.90
2022-10-20T11:32:39.604Z,99.90
2022-10-20T11:35:21.401Z,99.90
2022-10-20T11:37:49.456Z,99.90
2022-10-20T11:40:29.590Z,99.90
2022-10-20T11:42:57.655Z,99.90
2022-10-20T11:45:24.176Z,99.90
2022-10-20T11:47:56.574Z,99.90
2022-10-20T11:50:23.126Z,99.90
2022-10-20T11:52:55.533Z,99.90
2022-10-20T11:55:28.223Z,99.90
2022-10-20T11:58:01.618Z,99.90
2022-10-20T12:00:31.198Z,99.90
2022-10-20T12:03:16.615Z,99.90
2022-10-20T12:05:50.761Z,99.90
2022-10-20T12:08:30.231Z,99.90
2022-10-20T12:11:14.941Z,99.90
2022-10-20T12:13:55.395Z,99.90
2022-10-20T12:16:40.689Z,99.90
2022-10-20T12:19:16.035Z,99.90
2022-10-20T12:21:55.396Z,99.90
2022-10-20T12:24:32.330Z,99.90
2022-10-20T12:27:01.873Z,99.90
2022-10-20T12:29:31.557Z,99.90
2022-10-20T12:32:20.883Z,99.90
2022-10-20T12:34:48.120Z,99.90
2022-10-20T12:37:18.626Z,99.90
2022-10-20T12:39:45.361Z,99.90
2022-10-20T12:42:41.397Z,99.90
2022-10-20T12:45:09.324Z,99.90
2022-10-20T12:47:36.421Z,99.90
2022-10-20T12:50:10.427Z,99.90
2022-10-20T12:52:38.650Z,99.90
2022-10-20T12:55:08.961Z,99.90
2022-10-20T12:57:38.173Z,99.90
2022-10-20T13:00:07.522Z,99.90
2022-10-20T13:02:44.430Z,99.90
2022-10-20T13:05:14.023Z,1.00
2022-10-20T13:07:46.667Z,1.00
2022-10-20T13:10:31.681Z,1.00
2022-10-20T13:13:18.171Z,1.00
2022-10-20T13:15:47.807Z,1.00
2022-10-20T13:18:20.243Z,1.00
2022-10-20T13:20:52.983Z,1.00
2022-10-20T13:23:29.433Z,1.00
2022-10-20T13:25:56.869Z,1.00
2022-10-20T13:28:24.175Z,1.00
2022-10-20T13:30:59.794Z,1.00
2022-10-20T13:33:38.879Z,1.00
2022-10-20T13:36:16.095Z,1.00
2022-10-20T13:38:48.040Z,1.00
2022-10-20T13:41:17.064Z,1.00
2022-10-20T13:43:56.643Z,1.00
2022-10-20T13:46:34.480Z,1.00
2022-10-20T13:49:01.032Z,1.00
2022-10-20T13:51:32.013Z,1.00
2022-10-20T13:53:59.654Z,1.00
2022-10-20T13:56:40.326Z,1.00
2022-10-20T13:59:18.621Z,1.00
2022-10-20T14:01:46.156Z,1.00
2022-10-20T14:04:29.531Z,1.00
2022-10-20T14:06:56.877Z,1.00
2022-10-20T14:09:24.526Z,1.00
2022-10-20T14:11:53.119Z,1.00
2022-10-20T14:14:23.905Z,1.00
2022-10-20T14:17:00.590Z,1.00
2022-10-20T14:19:30.662Z,1.00
2022-10-20T14:21:58.308Z,1.00
2022-10-20T14:24:35.048Z,1.00
2022-10-20T14:27:02.384Z,1.00
2022-10-20T14:29:29.545Z,1.00
2022-10-20T14:31:56.096Z,1.00
2022-10-20T14:34:23.410Z,1.00
2022-10-20T14:36:50.204Z,1.00
2022-10-20T14:39:37.912Z,1.00
2022-10-20T14:42:05.936Z,1.00
2022-10-20T14:44:32.551Z,1.00
2022-10-20T14:46:59.837Z,1.00
2022-10-20T14:49:27.806Z,1.00
2022-10-20T14:51:55.773Z,1.00
2022-10-20T14:54:31.509Z,1.00
2022-10-20T14:56:59.063Z,1.00
2022-10-20T14:59:32.782Z,1.00
2022-10-20T15:02:12.646Z,1.00
2022-10-20T15:04:42.689Z,1.00
2022-10-20T15:07:13.351Z,1.00
2022-10-20T15:09:40.901Z,1.00
2022-10-20T15:12:08.001Z,1.00
2022-10-20T15:14:34.592Z,1.00
2022-10-20T15:17:01.287Z,1.00
2022-10-20T15:19:29.339Z,1.00
2022-10-20T15:22:00.305Z,1.00
2022-10-20T15:24:27.272Z,1.00
2022-10-20T15:26:53.855Z,1.00
2022-10-20T15:29:20.478Z,1.00
2022-10-20T15:31:47.190Z,9.20
2022-10-20T15:34:13.767Z,53.90
2022-10-20T15:36:42.269Z,99.90
2022-10-20T15:39:09.225Z,99.90
2022-10-20T15:41:35.992Z,99.90
2022-10-20T15:44:03.735Z,99.90
2022-10-20T15:46:30.291Z,99.90
2022-10-20T15:48:56.897Z,99.90
2022-10-20T15:51:30.199Z,99.90
2022-10-20T15:53:57.010Z,1.00
2022-10-20T15:56:23.756Z,1.00
2022-10-20T15:58:50.382Z,1.00
2022-10-20T16:01:17.201Z,1.00
2022-10-20T16:03:43.968Z,1.00
2022-10-20T16:06:13.266Z,96.80
2022-10-20T16:08:42.857Z,99.90
2022-10-20T16:11:09.522Z,99.90
2022-10-20T16:13:38.233Z,99.90
2022-10-20T16:16:05.370Z,1.00
2022-10-20T16:18:31.962Z,1.00
2022-10-20T16:20:58.545Z,1.00
2022-10-20T16:23:25.135Z,1.00
2022-10-20T16:25:51.860Z,1.00
2022-10-20T16:28:18.487Z,1.00
2022-10-20T16:30:45.038Z,1.00
2022-10-20T16:33:11.631Z,82.20
2022-10-20T16:35:44.472Z,99.90
2022-10-20T16:38:11.142Z,99.90
2022-10-20T16:40:37.714Z,99.90
2022-10-20T16:43:04.268Z,99.90
2022-10-20T16:45:30.849Z,99.90
2022-10-20T16:47:57.427Z,1.00
2022-10-20T16:50:23.983Z,1.00
2022-10-20T16:52:50.516Z,1.00
2022-10-20T16:55:17.085Z,1.00
2022-10-20T16:57:43.625Z,1.00
2022-10-20T17:00:10.423Z,1.00
2022-10-20T17:02:36.989Z,1.00
2022-10-20T17:05:06.823Z,1.00
2022-10-20T17:07:36.014Z,1.00
2022-10-20T17:10:02.862Z,1.00
2022-10-20T17:12:29.412Z,23.10
2022-10-20T17:14:55.973Z,99.90
2022-10-20T17:17:22.527Z,99.90
2022-10-20T17:19:49.063Z,99.90
2022-10-20T17:22:15.816Z,99.90
2022-10-20T17:24:42.385Z,99.90
2022-10-20T17:27:08.995Z,99.90
2022-10-20T17:29:35.642Z,99.90
2022-10-20T17:32:02.322Z,99.90
2022-10-20T17:34:28.904Z,99.90
2022-10-20T17:36:55.500Z,99.90
2022-10-20T17:39:22.084Z,99.90
2022-10-20T17:41:48.728Z,99.90
2022-10-20T17:44:15.301Z,99.90
2022-10-20T17:46:43.269Z,99.90
2022-10-20T17:49:09.860Z,99.90
2022-10-20T17:51:36.500Z,1.00
2022-10-20T17:54:03.149Z,1.00
2022-10-20T17:56:34.112Z,1.00
2022-10-20T17:59:02.849Z,1.00
2022-10-20T18:01:30.590Z,1.00
2022-10-20T18:04:00.101Z,1.00
2022-10-20T18:06:31.201Z,1.00
2022-10-20T18:09:00.953Z,1.00
2022-10-20T18:11:28.364Z,1.00
2022-10-20T18:13:56.309Z,1.00
2022-10-20T18:16:23.008Z,1.00
2022-10-20T18:18:49.613Z,1.00
2022-10-20T18:21:16.708Z,1.00
2022-10-20T18:23:45.547Z,1.00
2022-10-20T18:26:13.612Z,1.00
2022-10-20T18:28:42.070Z,1.00
2022-10-20T18:31:14.548Z,1.00
2022-10-20T18:33:41.764Z,1.00
2022-10-20T18:36:09.046Z,1.00
2022-10-20T18:38:36.068Z,1.00
2022-10-20T18:41:09.890Z,1.00
2022-10-20T18:43:36.488Z,1.00
2022-10-20T18:46:03.454Z,1.00
2022-10-20T18:48:30.410Z,1.00
2022-10-20T18:50:57.375Z,14.70
2022-10-20T18:53:23.939Z,10.10
2022-10-20T18:56:06.773Z,48.10
2022-10-20T18:58:34.924Z,99.90
2022-10-20T19:01:02.543Z,99.90
2022-10-20T19:03:31.405Z,99.90
2022-10-20T19:06:01.711Z,99.90
2022-10-20T19:08:28.514Z,99.90
2022-10-20T19:10:55.150Z,99.90
2022-10-20T19:13:21.696Z,99.90
2022-10-20T19:15:48.279Z,99.90
2022-10-20T19:18:14.813Z,99.90
2022-10-20T19:20:41.364Z,99.90
2022-10-20T19:23:07.917Z,99.90
2022-10-20T19:25:34.467Z,99.90
2022-10-20T19:28:01.006Z,99.90
2022-10-20T19:30:27.552Z,99.90
2022-10-20T19:32:54.856Z,99.90
2022-10-20T19:35:21.901Z,99.90
2022-10-20T19:37:48.446Z,99.90
2022-10-20T19:40:14.972Z,99.90
2022-10-20T19:42:41.512Z,99.90
2022-10-20T19:45:08.129Z,99.90
2022-10-20T19:47:34.700Z,99.90
2022-10-20T19:50:01.271Z,99.90
2022-10-20T19:52:27.890Z,99.90
2022-10-20T19:54:54.420Z,99.90
2022-10-20T19:57:20.974Z,99.90
2022-10-20T19:59:47.509Z,99.90
2022-10-20T20:02:14.051Z,99.90
2022-10-20T20:04:40.591Z,99.90
2022-10-20T20:07:07.211Z,99.90
2022-10-20T20:09:33.905Z,99.90
2022-10-20T20:12:00.491Z,99.90
2022-10-20T20:14:27.104Z,99.90
2022-10-20T20:16:53.700Z,99.90
2022-10-20T20:19:20.274Z,99.90
2022-10-20T20:21:46.955Z,99.90
2022-10-20T20:24:14.041Z,99.90
2022-10-20T20:26:40.750Z,99.90
2022-10-20T20:29:07.299Z,99.90
2022-10-20T20:31:33.885Z,99.90
2022-10-20T20:34:00.511Z,99.90
2022-10-20T20:36:27.571Z,99.90
2022-10-20T20:38:56.660Z,99.90
2022-10-20T20:41:25.975Z,99.90
2022-10-20T20:43:52.502Z,93.20
2022-10-20T20:46:19.624Z,71.40
2022-10-20T20:48:46.181Z,20.00
2022-10-20T20:51:12.814Z,1.00
2022-10-20T20:53:39.834Z,1.00
2022-10-20T20:56:10.231Z,1.00
2022-10-20T20:58:36.791Z,1.00
2022-10-20T21:01:07.391Z,1.00
2022-10-20T21:03:34.020Z,1.00
2022-10-20T21:06:07.220Z,1.00
2022-10-20T21:08:34.086Z,1.00
2022-10-20T21:11:04.581Z,1.00
2022-10-20T21:13:31.785Z,1.00
2022-10-20T21:16:27.652Z,1.00
2022-10-20T21:18:55.155Z,1.00
2022-10-20T21:21:24.489Z,1.30
2022-10-20T21:23:51.127Z,24.20
2022-10-20T21:26:18.059Z,51.10
2022-10-20T21:28:44.637Z,54.40
2022-10-20T21:31:11.914Z,76.80
2022-10-20T21:33:38.544Z,74.10
2022-10-20T21:36:08.583Z,82.90
2022-10-20T21:38:35.421Z,93.60
2022-10-20T21:41:02.841Z,99.90
2022-10-20T21:43:30.262Z,99.90
2022-10-20T21:45:56.897Z,99.90
2022-10-20T21:48:23.472Z,99.90
2022-10-20T21:50:50.064Z,99.90
2022-10-20T21:53:16.597Z,98.70
2022-10-20T21:55:43.142Z,99.90
2022-10-20T21:58:09.671Z,99.90
2022-10-20T22:00:36.207Z,99.90
2022-10-20T22:03:02.735Z,99.90
2022-10-20T22:05:29.285Z,99.90
2022-10-20T22:07:55.960Z,99.90
2022-10-20T22:10:22.543Z,99.90
2022-10-20T22:12:49.073Z,99.90
2022-10-20T22:15:15.653Z,99.90
2022-10-20T22:17:42.185Z,99.90
2022-10-20T22:20:09.018Z,99.90
2022-10-20T22:22:35.895Z,99.90
2022-10-20T22:25:02.578Z,99.90
2022-10-20T22:27:41.710Z,99.90
2022-10-20T22:30:09.129Z,99.90
2022-10-20T22:32:36.001Z,99.90
2022-10-20T22:35:02.809Z,99.90
2022-10-20T22:37:29.365Z,99.90
2022-10-20T22:39:55.891Z,99.90
2022-10-20T22:42:24.873Z,99.90
2022-10-20T22:44:51.605Z,99.90
2022-10-20T22:47:18.156Z,99.90
2022-10-20T22:49:44.733Z,99.90
2022-10-20T22:52:11.281Z,99.90
2022-10-20T22:54:37.897Z,99.90
2022-10-20T22:57:04.453Z,99.90
2022-10-20T22:59:30.992Z,99.90
2022-10-20T23:01:57.545Z,99.90
2022-10-20T23:04:24.079Z,99.90
2022-10-20T23:06:50.717Z,99.90
2022-10-20T23:09:17.349Z,99.90
2022-10-20T23:11:43.924Z,99.90
2022-10-20T23:14:10.462Z,99.90
2022-10-20T23:16:37.021Z,1.00
2022-10-20T23:19:03.553Z,1.00
2022-10-20T23:21:30.101Z,1.00
2022-10-20T23:23:56.664Z,1.00
2022-10-20T23:26:23.220Z,1.00
2022-10-20T23:28:49.775Z,1.00
2022-10-20T23:31:17.366Z,1.00
2022-10-20T23:33:44.317Z,1.00
2022-10-20T23:36:11.061Z,1.00
2022-10-20T23:38:37.591Z,1.00
2022-10-20T23:41:04.405Z,1.00
2022-10-20T23:43:31.157Z,1.00
2022-10-20T23:45:57.759Z,1.00
2022-10-20T23:48:24.306Z,1.00
2022-10-20T23:50:50.864Z,1.00
2022-10-20T23:53:17.429Z,1.00
2022-10-20T23:55:43.986Z,1.00
2022-10-20T23:58:10.594Z,1.00
